sensor_id;sensor_type;location;lat;lon;timestamp;pressure;altitude;pressure_sealevel;temperature;humidity
77526;BME280;66627;29.424;-98.496;2024-03-23T00:54:51;98627.85;;;21.76;29.94
77526;BME280;66627;29.424;-98.496;2024-03-23T00:57:17;98630.52;;;21.98;30.38
77526;BME280;66627;29.424;-98.496;2024-03-23T00:59:43;98632.06;;;21.91;30.44
77526;BME280;66627;29.424;-98.496;2024-03-23T01:02:08;98625.52;;;21.61;29.88
77526;BME280;66627;29.424;-98.496;2024-03-23T01:04:34;98627.15;;;21.41;31.31
77526;BME280;66627;29.424;-98.496;2024-03-23T01:06:57;98623.33;;;21.51;31.05
77526;BME280;66627;29.424;-98.496;2024-03-23T01:09:22;98628.31;;;21.01;30.49
77526;BME280;66627;29.424;-98.496;2024-03-23T01:11:47;98634.82;;;21.08;31.92
77526;BME280;66627;29.424;-98.496;2024-03-23T01:14:13;98634.67;;;21.32;31.60
77526;BME280;66627;29.424;-98.496;2024-03-23T01:16:39;98640.20;;;21.44;31.08
77526;BME280;66627;29.424;-98.496;2024-03-23T01:19:04;98636.52;;;20.68;30.98
77526;BME280;66627;29.424;-98.496;2024-03-23T01:21:30;98642.28;;;20.90;30.71
77526;BME280;66627;29.424;-98.496;2024-03-23T01:23:54;98651.31;;;21.15;30.93
77526;BME280;66627;29.424;-98.496;2024-03-23T01:26:18;98657.25;;;20.96;30.77
77526;BME280;66627;29.424;-98.496;2024-03-23T01:28:44;98661.94;;;20.80;31.29
77526;BME280;66627;29.424;-98.496;2024-03-23T01:31:09;98661.69;;;21.17;30.95
77526;BME280;66627;29.424;-98.496;2024-03-23T01:33:34;98665.94;;;20.83;29.97
77526;BME280;66627;29.424;-98.496;2024-03-23T01:35:59;98663.07;;;21.08;31.11
77526;BME280;66627;29.424;-98.496;2024-03-23T01:38:24;98676.33;;;20.98;30.08
77526;BME280;66627;29.424;-98.496;2024-03-23T01:43:14;98681.08;;;20.63;31.70
77526;BME280;66627;29.424;-98.496;2024-03-23T01:45:40;98681.84;;;20.31;31.93
77526;BME280;66627;29.424;-98.496;2024-03-23T01:48:08;98690.90;;;20.37;32.60
77526;BME280;66627;29.424;-98.496;2024-03-23T01:50:32;98696.34;;;19.99;33.72
77526;BME280;66627;29.424;-98.496;2024-03-23T01:52:57;98697.19;;;20.16;35.00
77526;BME280;66627;29.424;-98.496;2024-03-23T01:55:21;98705.09;;;19.94;35.55
77526;BME280;66627;29.424;-98.496;2024-03-23T01:57:48;98705.58;;;19.76;36.36
77526;BME280;66627;29.424;-98.496;2024-03-23T02:00:12;98709.85;;;20.21;36.63
77526;BME280;66627;29.424;-98.496;2024-03-23T02:02:36;98712.55;;;20.14;37.11
77526;BME280;66627;29.424;-98.496;2024-03-23T02:05:02;98719.03;;;19.68;38.42
77526;BME280;66627;29.424;-98.496;2024-03-23T02:07:27;98716.03;;;19.00;39.66
77526;BME280;66627;29.424;-98.496;2024-03-23T02:09:52;98728.98;;;19.49;39.54
77526;BME280;66627;29.424;-98.496;2024-03-23T02:12:18;98727.82;;;18.98;41.73
77526;BME280;66627;29.424;-98.496;2024-03-23T02:14:43;98738.19;;;18.94;41.35
77526;BME280;66627;29.424;-98.496;2024-03-23T02:17:09;98744.99;;;19.67;41.95
77526;BME280;66627;29.424;-98.496;2024-03-23T02:19:32;98756.70;;;19.49;41.60
77526;BME280;66627;29.424;-98.496;2024-03-23T02:21:58;98768.55;;;19.58;42.54
77526;BME280;66627;29.424;-98.496;2024-03-23T02:24:23;98770.77;;;19.80;41.92
77526;BME280;66627;29.424;-98.496;2024-03-23T02:26:49;98779.55;;;19.53;43.08
77526;BME280;66627;29.424;-98.496;2024-03-23T02:29:13;98779.89;;;19.49;43.32
77526;BME280;66627;29.424;-98.496;2024-03-23T02:31:39;98789.47;;;18.95;44.20
77526;BME280;66627;29.424;-98.496;2024-03-23T02:34:10;98790.99;;;18.94;44.66
77526;BME280;66627;29.424;-98.496;2024-03-23T02:36:29;98799.59;;;18.98;44.76
77526;BME280;66627;29.424;-98.496;2024-03-23T02:38:53;98807.12;;;18.83;45.97
77526;BME280;66627;29.424;-98.496;2024-03-23T02:41:19;98812.36;;;19.13;45.71
77526;BME280;66627;29.424;-98.496;2024-03-23T02:43:44;98815.49;;;18.75;45.91
77526;BME280;66627;29.424;-98.496;2024-03-23T02:46:10;98820.92;;;18.51;47.57
77526;BME280;66627;29.424;-98.496;2024-03-23T02:48:35;98830.57;;;19.07;47.10
77526;BME280;66627;29.424;-98.496;2024-03-23T02:51:00;98832.77;;;19.41;46.80
77526;BME280;66627;29.424;-98.496;2024-03-23T02:53:25;98827.86;;;18.49;47.52
77526;BME280;66627;29.424;-98.496;2024-03-23T02:55:50;98833.13;;;18.89;47.54
77526;BME280;66627;29.424;-98.496;2024-03-23T02:58:15;98843.03;;;18.70;47.88
77526;BME280;66627;29.424;-98.496;2024-03-23T03:00:41;98837.40;;;18.54;48.38
77526;BME280;66627;29.424;-98.496;2024-03-23T03:03:05;98845.12;;;18.56;49.31
77526;BME280;66627;29.424;-98.496;2024-03-23T03:05:31;98855.68;;;18.04;49.54
77526;BME280;66627;29.424;-98.496;2024-03-23T03:07:55;98855.49;;;18.45;48.56
77526;BME280;66627;29.424;-98.496;2024-03-23T03:10:21;98868.46;;;18.08;50.24
77526;BME280;66627;29.424;-98.496;2024-03-23T03:12:47;98873.50;;;18.12;49.62
77526;BME280;66627;29.424;-98.496;2024-03-23T03:15:12;98871.65;;;18.65;49.11
77526;BME280;66627;29.424;-98.496;2024-03-23T03:17:36;98880.58;;;18.21;49.31
77526;BME280;66627;29.424;-98.496;2024-03-23T03:20:07;98891.44;;;18.49;49.56
77526;BME280;66627;29.424;-98.496;2024-03-23T03:22:26;98898.61;;;18.12;49.51
77526;BME280;66627;29.424;-98.496;2024-03-23T03:24:52;98907.00;;;18.19;50.10
77526;BME280;66627;29.424;-98.496;2024-03-23T03:27:17;98915.63;;;18.36;49.39
77526;BME280;66627;29.424;-98.496;2024-03-23T03:29:42;98913.69;;;18.27;50.74
77526;BME280;66627;29.424;-98.496;2024-03-23T03:32:08;98913.86;;;18.41;49.82
77526;BME280;66627;29.424;-98.496;2024-03-23T03:34:33;98931.43;;;18.10;50.35
77526;BME280;66627;29.424;-98.496;2024-03-23T03:36:58;98931.75;;;18.07;50.95
77526;BME280;66627;29.424;-98.496;2024-03-23T03:39:22;98933.15;;;17.47;51.87
77526;BME280;66627;29.424;-98.496;2024-03-23T03:41:51;98948.80;;;17.51;52.56
77526;BME280;66627;29.424;-98.496;2024-03-23T03:44:13;98951.96;;;17.79;51.55
77526;BME280;66627;29.424;-98.496;2024-03-23T03:46:38;98960.66;;;17.92;50.62
77526;BME280;66627;29.424;-98.496;2024-03-23T03:49:04;98968.53;;;18.39;51.20
77526;BME280;66627;29.424;-98.496;2024-03-23T03:51:28;98974.12;;;17.64;52.05
77526;BME280;66627;29.424;-98.496;2024-03-23T03:53:54;98982.86;;;17.80;51.29
77526;BME280;66627;29.424;-98.496;2024-03-23T03:56:19;98988.27;;;18.31;51.32
77526;BME280;66627;29.424;-98.496;2024-03-23T03:58:44;98989.04;;;17.81;51.01
77526;BME280;66627;29.424;-98.496;2024-03-23T04:01:09;98993.49;;;17.17;53.14
77526;BME280;66627;29.424;-98.496;2024-03-23T04:03:35;99002.19;;;17.70;51.51
77526;BME280;66627;29.424;-98.496;2024-03-23T04:05:59;99002.78;;;17.20;53.17
77526;BME280;66627;29.424;-98.496;2024-03-23T04:08:25;99008.71;;;17.91;51.48
77526;BME280;66627;29.424;-98.496;2024-03-23T04:10:55;99007.83;;;17.81;52.15
77526;BME280;66627;29.424;-98.496;2024-03-23T04:13:15;99014.89;;;17.52;52.41
77526;BME280;66627;29.424;-98.496;2024-03-23T04:15:41;99016.66;;;17.76;52.86
77526;BME280;66627;29.424;-98.496;2024-03-23T04:18:06;99029.20;;;17.74;52.60
77526;BME280;66627;29.424;-98.496;2024-03-23T04:20:30;99035.90;;;18.06;52.33
77526;BME280;66627;29.424;-98.496;2024-03-23T04:22:57;99040.54;;;17.76;52.44
77526;BME280;66627;29.424;-98.496;2024-03-23T04:25:21;99044.89;;;17.99;52.28
77526;BME280;66627;29.424;-98.496;2024-03-23T04:27:46;99042.86;;;18.21;52.39
77526;BME280;66627;29.424;-98.496;2024-03-23T04:30:13;99035.02;;;17.53;53.63
77526;BME280;66627;29.424;-98.496;2024-03-23T04:32:36;99039.18;;;16.70;54.83
77526;BME280;66627;29.424;-98.496;2024-03-23T04:35:01;99045.07;;;17.35;54.23
77526;BME280;66627;29.424;-98.496;2024-03-23T04:37:26;99044.41;;;17.78;54.00
77526;BME280;66627;29.424;-98.496;2024-03-23T04:39:52;99049.82;;;17.56;53.55
77526;BME280;66627;29.424;-98.496;2024-03-23T04:42:16;99041.73;;;17.34;53.48
77526;BME280;66627;29.424;-98.496;2024-03-23T04:44:43;99053.24;;;17.53;53.28
77526;BME280;66627;29.424;-98.496;2024-03-23T04:47:16;99054.74;;;17.58;53.31
77526;BME280;66627;29.424;-98.496;2024-03-23T04:49:32;99054.35;;;17.55;54.67
77526;BME280;66627;29.424;-98.496;2024-03-23T04:51:58;99059.04;;;17.71;54.83
77526;BME280;66627;29.424;-98.496;2024-03-23T04:54:23;99057.99;;;18.00;53.71
77526;BME280;66627;29.424;-98.496;2024-03-23T04:56:47;99058.76;;;17.91;53.76
77526;BME280;66627;29.424;-98.496;2024-03-23T04:59:13;99054.07;;;17.42;55.30
77526;BME280;66627;29.424;-98.496;2024-03-23T05:01:38;99056.96;;;17.75;54.77
77526;BME280;66627;29.424;-98.496;2024-03-23T05:04:03;99051.87;;;17.50;54.79
77526;BME280;66627;29.424;-98.496;2024-03-23T05:06:28;99054.00;;;17.63;53.69
77526;BME280;66627;29.424;-98.496;2024-03-23T05:08:53;99057.26;;;17.33;54.76
77526;BME280;66627;29.424;-98.496;2024-03-23T05:11:18;99057.21;;;17.60;54.52
77526;BME280;66627;29.424;-98.496;2024-03-23T05:13:49;99057.86;;;17.01;55.55
77526;BME280;66627;29.424;-98.496;2024-03-23T05:16:09;99063.32;;;17.77;54.57
77526;BME280;66627;29.424;-98.496;2024-03-23T05:18:34;99065.91;;;17.89;54.46
77526;BME280;66627;29.424;-98.496;2024-03-23T05:20:59;99066.47;;;17.77;54.29
77526;BME280;66627;29.424;-98.496;2024-03-23T05:23:24;99064.79;;;17.41;54.12
77526;BME280;66627;29.424;-98.496;2024-03-23T05:25:49;99072.05;;;17.39;54.83
77526;BME280;66627;29.424;-98.496;2024-03-23T05:28:20;99076.59;;;17.16;55.65
77526;BME280;66627;29.424;-98.496;2024-03-23T05:30:40;99076.13;;;17.51;55.41
77526;BME280;66627;29.424;-98.496;2024-03-23T05:33:05;99084.07;;;17.49;55.25
77526;BME280;66627;29.424;-98.496;2024-03-23T05:35:30;99086.86;;;16.74;57.25
77526;BME280;66627;29.424;-98.496;2024-03-23T05:37:55;99086.58;;;17.27;56.66
77526;BME280;66627;29.424;-98.496;2024-03-23T05:40:20;99087.66;;;17.00;56.28
77526;BME280;66627;29.424;-98.496;2024-03-23T05:42:45;99093.38;;;17.46;55.77
77526;BME280;66627;29.424;-98.496;2024-03-23T05:45:11;99095.35;;;17.33;55.93
77526;BME280;66627;29.424;-98.496;2024-03-23T05:47:36;99092.90;;;17.18;56.61
77526;BME280;66627;29.424;-98.496;2024-03-23T05:50:01;99091.45;;;17.04;55.95
77526;BME280;66627;29.424;-98.496;2024-03-23T05:52:26;99088.99;;;17.02;56.53
77526;BME280;66627;29.424;-98.496;2024-03-23T05:54:52;99088.45;;;17.41;56.31
77526;BME280;66627;29.424;-98.496;2024-03-23T05:57:17;99082.81;;;17.98;54.82
77526;BME280;66627;29.424;-98.496;2024-03-23T05:59:42;99079.69;;;17.40;55.88
77526;BME280;66627;29.424;-98.496;2024-03-23T06:02:07;99074.82;;;18.04;54.81
77526;BME280;66627;29.424;-98.496;2024-03-23T06:04:32;99075.66;;;17.59;55.94
77526;BME280;66627;29.424;-98.496;2024-03-23T06:06:57;99074.37;;;17.40;56.94
77526;BME280;66627;29.424;-98.496;2024-03-23T06:09:23;99067.83;;;17.29;55.81
77526;BME280;66627;29.424;-98.496;2024-03-23T06:11:48;99070.13;;;17.37;56.74
77526;BME280;66627;29.424;-98.496;2024-03-23T06:14:13;99075.16;;;17.09;56.62
77526;BME280;66627;29.424;-98.496;2024-03-23T06:16:39;99078.56;;;16.61;58.34
77526;BME280;66627;29.424;-98.496;2024-03-23T06:19:03;99086.54;;;16.49;58.45
77526;BME280;66627;29.424;-98.496;2024-03-23T06:21:28;99089.56;;;16.54;59.25
77526;BME280;66627;29.424;-98.496;2024-03-23T06:23:54;99086.38;;;16.53;58.92
77526;BME280;66627;29.424;-98.496;2024-03-23T06:26:19;99075.24;;;15.97;60.15
77526;BME280;66627;29.424;-98.496;2024-03-23T06:28:43;99075.24;;;16.52;58.79
77526;BME280;66627;29.424;-98.496;2024-03-23T06:31:10;99072.15;;;16.82;59.53
77526;BME280;66627;29.424;-98.496;2024-03-23T06:33:34;99066.58;;;16.76;59.18
77526;BME280;66627;29.424;-98.496;2024-03-23T06:35:59;99060.38;;;17.17;58.00
77526;BME280;66627;29.424;-98.496;2024-03-23T06:38:24;99050.47;;;17.13;58.97
77526;BME280;66627;29.424;-98.496;2024-03-23T06:40:50;99037.88;;;15.90;60.84
77526;BME280;66627;29.424;-98.496;2024-03-23T06:43:15;99033.90;;;16.79;60.11
77526;BME280;66627;29.424;-98.496;2024-03-23T06:45:40;99030.73;;;16.88;59.82
77526;BME280;66627;29.424;-98.496;2024-03-23T06:48:06;99032.74;;;17.22;59.23
77526;BME280;66627;29.424;-98.496;2024-03-23T06:50:30;99030.61;;;16.08;60.22
77526;BME280;66627;29.424;-98.496;2024-03-23T06:52:55;99033.00;;;15.87;61.83
77526;BME280;66627;29.424;-98.496;2024-03-23T06:55:20;99023.66;;;15.96;62.36
77526;BME280;66627;29.424;-98.496;2024-03-23T06:57:51;99024.99;;;16.32;61.72
77526;BME280;66627;29.424;-98.496;2024-03-23T07:00:12;99024.34;;;15.65;62.83
77526;BME280;66627;29.424;-98.496;2024-03-23T07:02:36;99026.93;;;15.99;62.66
77526;BME280;66627;29.424;-98.496;2024-03-23T07:05:01;99029.31;;;16.37;61.57
77526;BME280;66627;29.424;-98.496;2024-03-23T07:07:26;99029.67;;;16.21;62.49
77526;BME280;66627;29.424;-98.496;2024-03-23T07:09:53;99028.77;;;16.87;61.42
77526;BME280;66627;29.424;-98.496;2024-03-23T07:12:17;99028.25;;;16.27;62.66
77526;BME280;66627;29.424;-98.496;2024-03-23T07:14:42;99027.34;;;15.81;64.42
77526;BME280;66627;29.424;-98.496;2024-03-23T07:17:08;99025.13;;;15.96;64.16
77526;BME280;66627;29.424;-98.496;2024-03-23T07:19:34;99020.15;;;15.88;63.32
77526;BME280;66627;29.424;-98.496;2024-03-23T07:22:02;99017.81;;;15.98;63.62
77526;BME280;66627;29.424;-98.496;2024-03-23T07:24:23;99009.96;;;16.02;63.96
77526;BME280;66627;29.424;-98.496;2024-03-23T07:26:48;99012.48;;;16.14;63.77
77526;BME280;66627;29.424;-98.496;2024-03-23T07:29:15;99010.28;;;16.10;63.65
77526;BME280;66627;29.424;-98.496;2024-03-23T07:31:38;99015.18;;;15.78;64.10
77526;BME280;66627;29.424;-98.496;2024-03-23T07:34:04;99016.08;;;16.17;63.80
77526;BME280;66627;29.424;-98.496;2024-03-23T07:36:29;99018.60;;;15.97;64.53
77526;BME280;66627;29.424;-98.496;2024-03-23T07:38:54;99025.62;;;16.15;64.15
77526;BME280;66627;29.424;-98.496;2024-03-23T07:41:20;99030.91;;;16.25;63.83
77526;BME280;66627;29.424;-98.496;2024-03-23T07:43:45;99031.60;;;16.24;63.85
77526;BME280;66627;29.424;-98.496;2024-03-23T07:46:10;99032.08;;;16.56;63.69
77526;BME280;66627;29.424;-98.496;2024-03-23T07:48:35;99036.38;;;16.41;63.08
77526;BME280;66627;29.424;-98.496;2024-03-23T07:51:01;99040.66;;;16.19;63.23
77526;BME280;66627;29.424;-98.496;2024-03-23T07:53:25;99043.05;;;16.63;62.52
77526;BME280;66627;29.424;-98.496;2024-03-23T07:55:55;99046.92;;;16.79;61.91
77526;BME280;66627;29.424;-98.496;2024-03-23T07:58:16;99054.22;;;16.61;62.75
77526;BME280;66627;29.424;-98.496;2024-03-23T08:00:41;99052.10;;;15.44;64.55
77526;BME280;66627;29.424;-98.496;2024-03-23T08:03:07;99057.12;;;16.37;62.49
77526;BME280;66627;29.424;-98.496;2024-03-23T08:05:31;99055.84;;;16.93;61.43
77526;BME280;66627;29.424;-98.496;2024-03-23T08:07:56;99058.98;;;16.81;62.23
77526;BME280;66627;29.424;-98.496;2024-03-23T08:10:21;99059.91;;;16.39;62.74
77526;BME280;66627;29.424;-98.496;2024-03-23T08:12:47;99063.52;;;16.63;61.90
77526;BME280;66627;29.424;-98.496;2024-03-23T08:15:17;99064.39;;;16.77;62.17
77526;BME280;66627;29.424;-98.496;2024-03-23T08:17:37;99066.55;;;16.56;62.15
77526;BME280;66627;29.424;-98.496;2024-03-23T08:20:02;99065.11;;;15.99;63.07
77526;BME280;66627;29.424;-98.496;2024-03-23T08:22:27;99063.41;;;16.68;61.77
77526;BME280;66627;29.424;-98.496;2024-03-23T08:24:52;99062.12;;;15.64;62.88
77526;BME280;66627;29.424;-98.496;2024-03-23T08:27:18;99057.89;;;15.88;63.89
77526;BME280;66627;29.424;-98.496;2024-03-23T08:29:47;99055.12;;;16.57;61.98
77526;BME280;66627;29.424;-98.496;2024-03-23T08:32:08;99051.40;;;16.66;61.14
77526;BME280;66627;29.424;-98.496;2024-03-23T08:34:33;99048.80;;;17.02;60.76
77526;BME280;66627;29.424;-98.496;2024-03-23T08:36:59;99049.71;;;16.75;60.74
77526;BME280;66627;29.424;-98.496;2024-03-23T08:39:24;99050.04;;;15.53;64.14
77526;BME280;66627;29.424;-98.496;2024-03-23T08:41:50;99052.98;;;16.00;64.14
77526;BME280;66627;29.424;-98.496;2024-03-23T08:44:14;99051.10;;;15.68;64.01
77526;BME280;66627;29.424;-98.496;2024-03-23T08:46:44;99053.37;;;16.35;61.68
77526;BME280;66627;29.424;-98.496;2024-03-23T08:49:04;99056.08;;;16.24;62.72
77526;BME280;66627;29.424;-98.496;2024-03-23T08:51:29;99054.54;;;16.61;61.68
77526;BME280;66627;29.424;-98.496;2024-03-23T08:53:54;99052.20;;;16.76;60.84
77526;BME280;66627;29.424;-98.496;2024-03-23T08:56:20;99054.60;;;16.54;61.16
77526;BME280;66627;29.424;-98.496;2024-03-23T08:58:45;99059.59;;;16.32;61.44
77526;BME280;66627;29.424;-98.496;2024-03-23T09:01:12;99065.11;;;16.60;61.09
77526;BME280;66627;29.424;-98.496;2024-03-23T09:03:36;99067.98;;;15.71;63.23
77526;BME280;66627;29.424;-98.496;2024-03-23T09:06:02;99066.39;;;16.33;62.30
77526;BME280;66627;29.424;-98.496;2024-03-23T09:08:26;99065.43;;;15.71;63.45
77526;BME280;66627;29.424;-98.496;2024-03-23T09:10:52;99060.35;;;15.83;62.68
77526;BME280;66627;29.424;-98.496;2024-03-23T09:13:22;99067.75;;;15.80;62.60
77526;BME280;66627;29.424;-98.496;2024-03-23T09:15:47;99067.65;;;16.26;60.40
77526;BME280;66627;29.424;-98.496;2024-03-23T09:18:07;99064.62;;;16.00;61.17
77526;BME280;66627;29.424;-98.496;2024-03-23T09:20:33;99060.70;;;16.24;60.73
77526;BME280;66627;29.424;-98.496;2024-03-23T09:22:57;99064.85;;;15.40;62.84
77526;BME280;66627;29.424;-98.496;2024-03-23T09:25:23;99067.51;;;15.48;63.00
77526;BME280;66627;29.424;-98.496;2024-03-23T09:27:48;99076.53;;;13.69;70.64
77526;BME280;66627;29.424;-98.496;2024-03-23T09:30:14;99076.21;;;14.28;69.59
77526;BME280;66627;29.424;-98.496;2024-03-23T09:32:40;99069.44;;;15.29;66.03
77526;BME280;66627;29.424;-98.496;2024-03-23T09:35:06;99064.11;;;15.65;64.07
77526;BME280;66627;29.424;-98.496;2024-03-23T09:37:29;99055.25;;;15.91;63.78
77526;BME280;66627;29.424;-98.496;2024-03-23T09:39:55;99052.85;;;15.31;64.62
77526;BME280;66627;29.424;-98.496;2024-03-23T09:42:21;99058.45;;;14.81;64.63
77526;BME280;66627;29.424;-98.496;2024-03-23T09:44:51;99052.13;;;15.30;64.14
77526;BME280;66627;29.424;-98.496;2024-03-23T09:47:11;99055.80;;;13.96;70.55
77526;BME280;66627;29.424;-98.496;2024-03-23T09:49:35;99054.63;;;14.40;68.64
77526;BME280;66627;29.424;-98.496;2024-03-23T09:52:04;99056.87;;;13.84;70.32
77526;BME280;66627;29.424;-98.496;2024-03-23T09:54:26;99055.54;;;13.45;71.81
77526;BME280;66627;29.424;-98.496;2024-03-23T09:56:51;99052.56;;;14.47;68.24
77526;BME280;66627;29.424;-98.496;2024-03-23T09:59:17;99057.28;;;14.14;67.67
77526;BME280;66627;29.424;-98.496;2024-03-23T10:01:41;99061.08;;;13.86;67.53
77526;BME280;66627;29.424;-98.496;2024-03-23T10:04:07;99058.85;;;15.09;63.67
77526;BME280;66627;29.424;-98.496;2024-03-23T10:06:32;99061.67;;;14.11;67.53
77526;BME280;66627;29.424;-98.496;2024-03-23T10:08:58;99061.67;;;13.57;69.71
77526;BME280;66627;29.424;-98.496;2024-03-23T10:11:23;99062.25;;;14.09;69.47
77526;BME280;66627;29.424;-98.496;2024-03-23T10:13:48;99057.45;;;13.23;73.17
77526;BME280;66627;29.424;-98.496;2024-03-23T10:16:22;99058.87;;;12.93;73.27
77526;BME280;66627;29.424;-98.496;2024-03-23T10:18:40;99057.50;;;13.78;70.51
77526;BME280;66627;29.424;-98.496;2024-03-23T10:21:09;99055.26;;;14.48;67.68
77526;BME280;66627;29.424;-98.496;2024-03-23T10:23:29;99055.40;;;15.02;65.04
77526;BME280;66627;29.424;-98.496;2024-03-23T10:25:54;99061.31;;;13.48;70.09
77526;BME280;66627;29.424;-98.496;2024-03-23T10:28:19;99064.14;;;13.52;69.22
77526;BME280;66627;29.424;-98.496;2024-03-23T10:30:50;99070.02;;;12.42;73.00
77526;BME280;66627;29.424;-98.496;2024-03-23T10:33:11;99078.89;;;12.59;74.06
77526;BME280;66627;29.424;-98.496;2024-03-23T10:35:36;99078.83;;;12.62;73.64
77526;BME280;66627;29.424;-98.496;2024-03-23T10:38:00;99083.07;;;13.74;69.78
77526;BME280;66627;29.424;-98.496;2024-03-23T10:40:25;99082.22;;;14.37;67.57
77526;BME280;66627;29.424;-98.496;2024-03-23T10:42:50;99084.76;;;14.21;67.35
77526;BME280;66627;29.424;-98.496;2024-03-23T10:45:16;99090.24;;;13.14;72.34
77526;BME280;66627;29.424;-98.496;2024-03-23T10:47:40;99092.98;;;12.39;73.58
77526;BME280;66627;29.424;-98.496;2024-03-23T10:50:06;99097.10;;;12.20;74.97
77526;BME280;66627;29.424;-98.496;2024-03-23T10:52:32;99095.04;;;13.71;70.56
77526;BME280;66627;29.424;-98.496;2024-03-23T10:54:57;99095.81;;;14.12;68.13
77526;BME280;66627;29.424;-98.496;2024-03-23T10:57:25;99099.02;;;14.49;68.16
77526;BME280;66627;29.424;-98.496;2024-03-23T10:59:48;99097.95;;;14.36;67.86
77526;BME280;66627;29.424;-98.496;2024-03-23T11:02:18;99101.29;;;14.09;66.32
77526;BME280;66627;29.424;-98.496;2024-03-23T11:04:39;99107.67;;;14.47;64.50
77526;BME280;66627;29.424;-98.496;2024-03-23T11:07:03;99107.60;;;14.58;63.80
77526;BME280;66627;29.424;-98.496;2024-03-23T11:09:39;99106.45;;;14.46;64.57
77526;BME280;66627;29.424;-98.496;2024-03-23T11:11:54;99114.98;;;14.29;66.53
77526;BME280;66627;29.424;-98.496;2024-03-23T11:14:23;99119.18;;;14.32;65.23
77526;BME280;66627;29.424;-98.496;2024-03-23T11:16:44;99119.44;;;14.82;65.66
77526;BME280;66627;29.424;-98.496;2024-03-23T11:21:52;99126.16;;;14.25;66.73
77526;BME280;66627;29.424;-98.496;2024-03-23T11:24:13;99124.22;;;14.55;65.71
77526;BME280;66627;29.424;-98.496;2024-03-23T11:26:26;99128.02;;;14.36;66.14
77526;BME280;66627;29.424;-98.496;2024-03-23T11:28:50;99136.10;;;14.38;65.34
77526;BME280;66627;29.424;-98.496;2024-03-23T11:31:20;99136.73;;;14.07;66.09
77526;BME280;66627;29.424;-98.496;2024-03-23T11:33:42;99138.20;;;14.35;65.28
77526;BME280;66627;29.424;-98.496;2024-03-23T11:36:06;99144.70;;;13.94;64.98
77526;BME280;66627;29.424;-98.496;2024-03-23T11:38:36;99147.90;;;14.27;64.77
77526;BME280;66627;29.424;-98.496;2024-03-23T11:40:56;99152.79;;;13.79;65.76
77526;BME280;66627;29.424;-98.496;2024-03-23T11:43:21;99160.45;;;12.64;70.41
77526;BME280;66627;29.424;-98.496;2024-03-23T11:45:48;99168.87;;;13.04;69.23
77526;BME280;66627;29.424;-98.496;2024-03-23T11:48:13;99175.92;;;13.24;67.19
77526;BME280;66627;29.424;-98.496;2024-03-23T11:50:39;99182.78;;;12.07;73.18
77526;BME280;66627;29.424;-98.496;2024-03-23T11:53:15;99190.60;;;11.66;74.42
77526;BME280;66627;29.424;-98.496;2024-03-23T11:55:29;99203.46;;;12.82;70.84
77526;BME280;66627;29.424;-98.496;2024-03-23T11:57:55;99199.67;;;13.44;67.65
77526;BME280;66627;29.424;-98.496;2024-03-23T12:00:23;99195.83;;;11.99;71.49
77526;BME280;66627;29.424;-98.496;2024-03-23T12:02:45;99202.34;;;13.07;68.16
77526;BME280;66627;29.424;-98.496;2024-03-23T12:05:15;99210.85;;;12.28;70.83
77526;BME280;66627;29.424;-98.496;2024-03-23T12:07:36;99215.62;;;12.01;70.71
77526;BME280;66627;29.424;-98.496;2024-03-23T12:10:10;99221.05;;;10.73;76.55
77526;BME280;66627;29.424;-98.496;2024-03-23T12:12:27;99232.95;;;10.86;77.87
77526;BME280;66627;29.424;-98.496;2024-03-23T12:15:02;99233.58;;;12.29;74.51
77526;BME280;66627;29.424;-98.496;2024-03-23T12:17:18;99234.35;;;11.52;77.76
77526;BME280;66627;29.424;-98.496;2024-03-23T12:19:45;99234.04;;;13.02;71.86
77526;BME280;66627;29.424;-98.496;2024-03-23T12:22:08;99237.74;;;11.88;74.22
77526;BME280;66627;29.424;-98.496;2024-03-23T12:24:33;99244.46;;;12.80;72.57
77526;BME280;66627;29.424;-98.496;2024-03-23T12:27:03;99249.94;;;12.74;70.43
77526;BME280;66627;29.424;-98.496;2024-03-23T12:29:25;99247.76;;;13.45;69.03
77526;BME280;66627;29.424;-98.496;2024-03-23T12:31:49;99245.75;;;12.58;70.90
77526;BME280;66627;29.424;-98.496;2024-03-23T12:34:15;99252.06;;;12.28;72.15
77526;BME280;66627;29.424;-98.496;2024-03-23T12:36:40;99261.67;;;11.18;78.83
77526;BME280;66627;29.424;-98.496;2024-03-23T12:39:05;99259.88;;;12.61;75.00
77526;BME280;66627;29.424;-98.496;2024-03-23T12:41:31;99270.32;;;11.45;76.27
77526;BME280;66627;29.424;-98.496;2024-03-23T12:43:56;99282.36;;;11.94;76.01
77526;BME280;66627;29.424;-98.496;2024-03-23T12:46:21;99296.97;;;11.06;78.41
77526;BME280;66627;29.424;-98.496;2024-03-23T12:48:47;99303.30;;;11.04;79.22
77526;BME280;66627;29.424;-98.496;2024-03-23T12:51:12;99309.98;;;10.76;79.06
77526;BME280;66627;29.424;-98.496;2024-03-23T12:53:37;99323.95;;;11.01;80.61
77526;BME280;66627;29.424;-98.496;2024-03-23T12:56:03;99341.86;;;10.89;81.14
77526;BME280;66627;29.424;-98.496;2024-03-23T12:58:29;99366.43;;;10.66;80.28
77526;BME280;66627;29.424;-98.496;2024-03-23T13:00:53;99378.33;;;11.23;79.04
77526;BME280;66627;29.424;-98.496;2024-03-23T13:03:20;99382.54;;;11.81;79.34
77526;BME280;66627;29.424;-98.496;2024-03-23T13:08:10;99377.85;;;11.64;82.92
77526;BME280;66627;29.424;-98.496;2024-03-23T13:10:35;99380.28;;;11.40;83.71
77526;BME280;66627;29.424;-98.496;2024-03-23T13:13:00;99390.15;;;12.22;81.35
77526;BME280;66627;29.424;-98.496;2024-03-23T13:15:26;99402.16;;;12.10;81.07
77526;BME280;66627;29.424;-98.496;2024-03-23T13:17:52;99412.02;;;12.05;80.12
77526;BME280;66627;29.424;-98.496;2024-03-23T13:20:17;99415.95;;;12.60;79.38
77526;BME280;66627;29.424;-98.496;2024-03-23T13:22:41;99415.82;;;12.77;78.84
77526;BME280;66627;29.424;-98.496;2024-03-23T13:25:08;99422.23;;;12.57;80.03
77526;BME280;66627;29.424;-98.496;2024-03-23T13:27:32;99436.19;;;12.31;81.34
77526;BME280;66627;29.424;-98.496;2024-03-23T13:30:03;99437.87;;;13.18;77.63